sensor_id;sensor_type;location;lat;lon;timestamp;P1;durP1;ratioP1;P2;durP2;ratioP2
18407;SDS011;9330;52.210;21.174;2023-04-01T00:00:30;14.27;;;10.20;;
18407;SDS011;9330;52.210;21.174;2023-04-01T00:02:57;11.75;;;9.68;;
18407;SDS011;9330;52.210;21.174;2023-04-01T00:05:25;14.70;;;9.52;;
18407;SDS011;9330;52.210;21.174;2023-04-01T00:07:52;12.45;;;9.77;;
18407;SDS011;9330;52.210;21.174;2023-04-01T00:10:20;16.30;;;10.43;;
18407;SDS011;9330;52.210;21.174;2023-04-01T00:12:47;12.18;;;8.85;;
18407;SDS011;9330;52.210;21.174;2023-04-01T00:15:14;15.02;;;9.88;;
18407;SDS011;9330;52.210;21.174;2023-04-01T00:17:41;14.35;;;9.95;;
18407;SDS011;9330;52.210;21.174;2023-04-01T00:20:09;13.68;;;10.20;;
18407;SDS011;9330;52.210;21.174;2023-04-01T00:22:37;11.07;;;9.45;;
18407;SDS011;9330;52.210;21.174;2023-04-01T00:25:04;13.75;;;10.20;;
18407;SDS011;9330;52.210;21.174;2023-04-01T00:27:33;11.13;;;9.10;;
18407;SDS011;9330;52.210;21.174;2023-04-01T00:30:00;14.07;;;10.25;;
18407;SDS011;9330;52.210;21.174;2023-04-01T00:32:27;15.93;;;10.82;;
18407;SDS011;9330;52.210;21.174;2023-04-01T00:34:55;13.10;;;10.70;;
18407;SDS011;9330;52.210;21.174;2023-04-01T00:37:24;11.02;;;9.73;;
18407;SDS011;9330;52.210;21.174;2023-04-01T00:39:51;13.63;;;10.45;;
18407;SDS011;9330;52.210;21.174;2023-04-01T00:42:18;13.27;;;10.02;;
18407;SDS011;9330;52.210;21.174;2023-04-01T00:44:47;12.57;;;9.55;;
18407;SDS011;9330;52.210;21.174;2023-04-01T00:47:17;13.10;;;10.52;;
18407;SDS011;9330;52.210;21.174;2023-04-01T00:49:45;12.98;;;9.75;;
18407;SDS011;9330;52.210;21.174;2023-04-01T00:52:15;12.68;;;10.45;;
18407;SDS011;9330;52.210;21.174;2023-04-01T00:54:46;15.20;;;10.90;;
18407;SDS011;9330;52.210;21.174;2023-04-01T00:57:17;15.50;;;10.07;;
18407;SDS011;9330;52.210;21.174;2023-04-01T00:59:49;17.15;;;10.90;;
18407;SDS011;9330;52.210;21.174;2023-04-01T01:02:19;17.33;;;10.68;;
18407;SDS011;9330;52.210;21.174;2023-04-01T01:04:46;11.73;;;9.82;;
18407;SDS011;9330;52.210;21.174;2023-04-01T01:07:17;13.45;;;10.60;;
18407;SDS011;9330;52.210;21.174;2023-04-01T01:09:55;14.30;;;10.50;;
18407;SDS011;9330;52.210;21.174;2023-04-01T01:12:29;15.23;;;10.70;;
18407;SDS011;9330;52.210;21.174;2023-04-01T01:15:05;14.18;;;11.02;;
18407;SDS011;9330;52.210;21.174;2023-04-01T01:17:44;14.13;;;11.18;;
18407;SDS011;9330;52.210;21.174;2023-04-01T01:20:25;12.77;;;10.52;;
18407;SDS011;9330;52.210;21.174;2023-04-01T01:23:26;15.55;;;11.68;;
18407;SDS011;9330;52.210;21.174;2023-04-01T01:39:40;14.48;;;11.00;;
18407;SDS011;9330;52.210;21.174;2023-04-01T01:42:11;14.82;;;11.52;;
18407;SDS011;9330;52.210;21.174;2023-04-01T01:44:41;13.25;;;11.60;;
18407;SDS011;9330;52.210;21.174;2023-04-01T01:47:11;13.00;;;10.68;;
18407;SDS011;9330;52.210;21.174;2023-04-01T01:49:39;18.55;;;12.15;;
18407;SDS011;9330;52.210;21.174;2023-04-01T01:52:09;14.05;;;10.10;;
18407;SDS011;9330;52.210;21.174;2023-04-01T01:54:47;17.10;;;10.88;;
18407;SDS011;9330;52.210;21.174;2023-04-01T01:57:14;15.13;;;10.45;;
18407;SDS011;9330;52.210;21.174;2023-04-01T01:59:45;15.35;;;11.13;;
18407;SDS011;9330;52.210;21.174;2023-04-01T02:02:14;13.93;;;10.85;;
18407;SDS011;9330;52.210;21.174;2023-04-01T02:04:43;16.85;;;11.43;;
18407;SDS011;9330;52.210;21.174;2023-04-01T02:07:13;15.63;;;11.25;;
18407;SDS011;9330;52.210;21.174;2023-04-01T02:09:44;16.45;;;11.23;;
18407;SDS011;9330;52.210;21.174;2023-04-01T02:12:13;15.02;;;11.35;;
18407;SDS011;9330;52.210;21.174;2023-04-01T02:14:43;16.20;;;11.55;;
18407;SDS011;9330;52.210;21.174;2023-04-01T02:17:14;15.55;;;12.27;;
18407;SDS011;9330;52.210;21.174;2023-04-01T02:19:44;15.00;;;11.88;;
18407;SDS011;9330;52.210;21.174;2023-04-01T02:22:17;15.25;;;12.15;;
18407;SDS011;9330;52.210;21.174;2023-04-01T02:24:48;13.23;;;10.70;;
18407;SDS011;9330;52.210;21.174;2023-04-01T02:27:16;13.23;;;11.77;;
18407;SDS011;9330;52.210;21.174;2023-04-01T02:29:44;13.98;;;11.95;;
18407;SDS011;9330;52.210;21.174;2023-04-01T02:32:11;14.00;;;12.43;;
18407;SDS011;9330;52.210;21.174;2023-04-01T02:34:39;14.65;;;11.57;;
18407;SDS011;9330;52.210;21.174;2023-04-01T02:37:07;17.83;;;12.48;;
18407;SDS011;9330;52.210;21.174;2023-04-01T02:39:34;16.65;;;12.60;;
18407;SDS011;9330;52.210;21.174;2023-04-01T02:42:03;15.60;;;12.90;;
18407;SDS011;9330;52.210;21.174;2023-04-01T02:44:30;13.65;;;11.43;;
18407;SDS011;9330;52.210;21.174;2023-04-01T02:46:57;14.40;;;12.35;;
18407;SDS011;9330;52.210;21.174;2023-04-01T02:49:24;14.07;;;11.85;;
18407;SDS011;9330;52.210;21.174;2023-04-01T02:51:51;15.43;;;12.35;;
18407;SDS011;9330;52.210;21.174;2023-04-01T02:54:18;15.10;;;11.48;;
18407;SDS011;9330;52.210;21.174;2023-04-01T02:56:45;15.55;;;12.95;;
18407;SDS011;9330;52.210;21.174;2023-04-01T02:59:13;17.33;;;14.45;;
18407;SDS011;9330;52.210;21.174;2023-04-01T03:01:40;16.00;;;13.40;;
18407;SDS011;9330;52.210;21.174;2023-04-01T03:04:07;18.35;;;12.57;;
18407;SDS011;9330;52.210;21.174;2023-04-01T03:06:34;15.95;;;12.73;;
18407;SDS011;9330;52.210;21.174;2023-04-01T03:09:00;15.85;;;12.52;;
18407;SDS011;9330;52.210;21.174;2023-04-01T03:11:28;19.02;;;14.00;;
18407;SDS011;9330;52.210;21.174;2023-04-01T03:13:55;20.08;;;13.20;;
18407;SDS011;9330;52.210;21.174;2023-04-01T03:16:23;15.77;;;13.73;;
18407;SDS011;9330;52.210;21.174;2023-04-01T03:18:50;18.33;;;13.93;;
18407;SDS011;9330;52.210;21.174;2023-04-01T03:21:18;16.88;;;14.48;;
18407;SDS011;9330;52.210;21.174;2023-04-01T03:23:46;19.35;;;15.55;;
18407;SDS011;9330;52.210;21.174;2023-04-01T03:26:13;18.88;;;14.82;;
18407;SDS011;9330;52.210;21.174;2023-04-01T03:28:40;17.00;;;15.15;;
18407;SDS011;9330;52.210;21.174;2023-04-01T03:31:06;20.05;;;16.17;;
18407;SDS011;9330;52.210;21.174;2023-04-01T03:33:35;19.23;;;16.00;;
18407;SDS011;9330;52.210;21.174;2023-04-01T03:36:02;23.52;;;17.17;;
18407;SDS011;9330;52.210;21.174;2023-04-01T03:38:31;20.20;;;17.42;;
18407;SDS011;9330;52.210;21.174;2023-04-01T03:40:58;20.92;;;17.58;;
18407;SDS011;9330;52.210;21.174;2023-04-01T03:43:25;22.50;;;18.00;;
18407;SDS011;9330;52.210;21.174;2023-04-01T03:45:52;22.05;;;16.77;;
18407;SDS011;9330;52.210;21.174;2023-04-01T03:48:21;19.23;;;16.60;;
18407;SDS011;9330;52.210;21.174;2023-04-01T03:50:52;21.70;;;17.98;;
18407;SDS011;9330;52.210;21.174;2023-04-01T03:53:18;22.05;;;18.00;;
18407;SDS011;9330;52.210;21.174;2023-04-01T03:55:46;18.85;;;16.67;;
18407;SDS011;9330;52.210;21.174;2023-04-01T03:58:13;19.40;;;17.33;;
18407;SDS011;9330;52.210;21.174;2023-04-01T04:00:40;19.77;;;17.13;;
18407;SDS011;9330;52.210;21.174;2023-04-01T04:03:07;20.35;;;16.83;;
18407;SDS011;9330;52.210;21.174;2023-04-01T04:05:34;18.88;;;16.85;;
18407;SDS011;9330;52.210;21.174;2023-04-01T04:08:02;20.83;;;17.42;;
18407;SDS011;9330;52.210;21.174;2023-04-01T04:10:29;22.10;;;17.38;;
18407;SDS011;9330;52.210;21.174;2023-04-01T04:12:56;21.60;;;18.02;;
18407;SDS011;9330;52.210;21.174;2023-04-01T04:15:23;20.23;;;17.38;;
18407;SDS011;9330;52.210;21.174;2023-04-01T04:17:50;20.77;;;17.42;;
18407;SDS011;9330;52.210;21.174;2023-04-01T04:20:16;19.10;;;17.02;;
18407;SDS011;9330;52.210;21.174;2023-04-01T04:22:43;21.40;;;18.13;;
18407;SDS011;9330;52.210;21.174;2023-04-01T04:25:12;19.40;;;17.30;;
18407;SDS011;9330;52.210;21.174;2023-04-01T04:27:39;21.27;;;17.58;;
18407;SDS011;9330;52.210;21.174;2023-04-01T04:30:06;22.17;;;18.30;;
18407;SDS011;9330;52.210;21.174;2023-04-01T04:32:34;18.73;;;16.35;;
18407;SDS011;9330;52.210;21.174;2023-04-01T04:35:02;20.75;;;16.92;;
18407;SDS011;9330;52.210;21.174;2023-04-01T04:37:29;19.95;;;16.85;;
18407;SDS011;9330;52.210;21.174;2023-04-01T04:39:56;22.98;;;17.45;;
18407;SDS011;9330;52.210;21.174;2023-04-01T04:42:24;19.42;;;17.38;;
18407;SDS011;9330;52.210;21.174;2023-04-01T04:44:51;19.08;;;16.60;;
18407;SDS011;9330;52.210;21.174;2023-04-01T04:47:17;22.23;;;17.40;;
18407;SDS011;9330;52.210;21.174;2023-04-01T04:49:44;20.42;;;17.70;;
18407;SDS011;9330;52.210;21.174;2023-04-01T04:52:11;21.88;;;17.77;;
18407;SDS011;9330;52.210;21.174;2023-04-01T04:54:38;20.92;;;17.48;;
18407;SDS011;9330;52.210;21.174;2023-04-01T04:57:05;19.90;;;17.10;;
18407;SDS011;9330;52.210;21.174;2023-04-01T04:59:33;17.67;;;15.63;;
18407;SDS011;9330;52.210;21.174;2023-04-01T05:02:00;20.20;;;16.63;;
18407;SDS011;9330;52.210;21.174;2023-04-01T05:04:27;20.88;;;16.35;;
18407;SDS011;9330;52.210;21.174;2023-04-01T05:06:54;17.65;;;15.15;;
18407;SDS011;9330;52.210;21.174;2023-04-01T05:09:20;17.48;;;15.57;;
18407;SDS011;9330;52.210;21.174;2023-04-01T05:11:47;16.88;;;14.18;;
18407;SDS011;9330;52.210;21.174;2023-04-01T05:14:14;15.35;;;13.60;;
18407;SDS011;9330;52.210;21.174;2023-04-01T05:16:43;16.95;;;13.75;;
18407;SDS011;9330;52.210;21.174;2023-04-01T05:19:10;14.70;;;12.73;;
18407;SDS011;9330;52.210;21.174;2023-04-01T05:21:37;15.70;;;13.55;;
18407;SDS011;9330;52.210;21.174;2023-04-01T05:24:07;14.20;;;12.43;;
18407;SDS011;9330;52.210;21.174;2023-04-01T05:26:34;15.23;;;12.27;;
18407;SDS011;9330;52.210;21.174;2023-04-01T05:29:01;14.48;;;12.45;;
18407;SDS011;9330;52.210;21.174;2023-04-01T05:31:28;13.45;;;11.75;;
18407;SDS011;9330;52.210;21.174;2023-04-01T05:33:57;12.18;;;10.90;;
18407;SDS011;9330;52.210;21.174;2023-04-01T05:36:24;12.85;;;11.43;;
18407;SDS011;9330;52.210;21.174;2023-04-01T05:38:50;12.23;;;10.57;;
18407;SDS011;9330;52.210;21.174;2023-04-01T05:41:21;13.63;;;10.80;;
18407;SDS011;9330;52.210;21.174;2023-04-01T05:43:48;13.30;;;11.30;;
18407;SDS011;9330;52.210;21.174;2023-04-01T05:46:14;11.95;;;10.75;;
18407;SDS011;9330;52.210;21.174;2023-04-01T05:48:41;13.85;;;10.45;;
18407;SDS011;9330;52.210;21.174;2023-04-01T05:51:12;12.80;;;10.82;;
18407;SDS011;9330;52.210;21.174;2023-04-01T05:53:40;11.73;;;10.32;;
18407;SDS011;9330;52.210;21.174;2023-04-01T05:56:07;13.38;;;11.40;;
18407;SDS011;9330;52.210;21.174;2023-04-01T05:58:35;13.32;;;10.90;;
18407;SDS011;9330;52.210;21.174;2023-04-01T06:01:02;12.07;;;10.85;;
18407;SDS011;9330;52.210;21.174;2023-04-01T06:03:30;11.95;;;10.55;;
18407;SDS011;9330;52.210;21.174;2023-04-01T06:05:56;13.35;;;11.93;;
18407;SDS011;9330;52.210;21.174;2023-04-01T06:08:25;12.40;;;10.73;;
18407;SDS011;9330;52.210;21.174;2023-04-01T06:10:55;12.60;;;11.07;;
18407;SDS011;9330;52.210;21.174;2023-04-01T06:13:35;11.88;;;10.65;;
18407;SDS011;9330;52.210;21.174;2023-04-01T06:16:21;12.50;;;10.82;;
18407;SDS011;9330;52.210;21.174;2023-04-01T06:21:55;10.80;;;9.65;;
18407;SDS011;9330;52.210;21.174;2023-04-01T06:24:43;11.68;;;9.75;;
18407;SDS011;9330;52.210;21.174;2023-04-01T06:27:36;11.88;;;10.68;;
18407;SDS011;9330;52.210;21.174;2023-04-01T06:30:19;12.27;;;10.45;;
18407;SDS011;9330;52.210;21.174;2023-04-01T06:33:08;11.35;;;10.10;;
18407;SDS011;9330;52.210;21.174;2023-04-01T06:38:39;11.68;;;10.15;;
18407;SDS011;9330;52.210;21.174;2023-04-01T06:44:30;11.77;;;9.85;;
18407;SDS011;9330;52.210;21.174;2023-04-01T06:47:02;11.30;;;9.90;;
18407;SDS011;9330;52.210;21.174;2023-04-01T06:49:41;11.02;;;9.93;;
18407;SDS011;9330;52.210;21.174;2023-04-01T06:52:18;10.55;;;9.45;;
18407;SDS011;9330;52.210;21.174;2023-04-01T06:54:52;13.82;;;11.57;;
18407;SDS011;9330;52.210;21.174;2023-04-01T06:57:28;11.98;;;10.75;;
18407;SDS011;9330;52.210;21.174;2023-04-01T06:59:59;13.50;;;11.82;;
18407;SDS011;9330;52.210;21.174;2023-04-01T07:02:29;14.60;;;11.88;;
18407;SDS011;9330;52.210;21.174;2023-04-01T07:05:02;13.85;;;12.43;;
18407;SDS011;9330;52.210;21.174;2023-04-01T07:07:33;16.08;;;14.45;;
18407;SDS011;9330;52.210;21.174;2023-04-01T07:10:06;15.55;;;13.95;;
18407;SDS011;9330;52.210;21.174;2023-04-01T07:12:43;16.92;;;15.18;;
18407;SDS011;9330;52.210;21.174;2023-04-01T07:15:16;15.70;;;14.15;;
18407;SDS011;9330;52.210;21.174;2023-04-01T07:17:47;16.80;;;14.15;;
18407;SDS011;9330;52.210;21.174;2023-04-01T07:20:20;14.88;;;13.35;;
18407;SDS011;9330;52.210;21.174;2023-04-01T07:22:51;14.60;;;13.15;;
18407;SDS011;9330;52.210;21.174;2023-04-01T07:25:21;15.40;;;13.90;;
18407;SDS011;9330;52.210;21.174;2023-04-01T07:27:53;15.38;;;13.70;;
18407;SDS011;9330;52.210;21.174;2023-04-01T07:30:26;15.05;;;13.60;;
18407;SDS011;9330;52.210;21.174;2023-04-01T07:33:00;14.70;;;13.15;;
18407;SDS011;9330;52.210;21.174;2023-04-01T07:35:33;14.20;;;11.98;;
18407;SDS011;9330;52.210;21.174;2023-04-01T07:38:08;13.00;;;11.70;;
18407;SDS011;9330;52.210;21.174;2023-04-01T07:40:45;12.32;;;11.13;;
18407;SDS011;9330;52.210;21.174;2023-04-01T07:43:25;15.07;;;12.80;;
18407;SDS011;9330;52.210;21.174;2023-04-01T07:46:06;12.60;;;11.32;;
18407;SDS011;9330;52.210;21.174;2023-04-01T07:48:42;12.70;;;11.25;;
18407;SDS011;9330;52.210;21.174;2023-04-01T07:51:17;12.50;;;11.27;;
18407;SDS011;9330;52.210;21.174;2023-04-01T07:53:49;13.38;;;11.98;;
18407;SDS011;9330;52.210;21.174;2023-04-01T07:56:25;14.05;;;12.55;;
18407;SDS011;9330;52.210;21.174;2023-04-01T07:59:01;16.70;;;14.90;;
18407;SDS011;9330;52.210;21.174;2023-04-01T08:01:34;15.82;;;14.23;;
18407;SDS011;9330;52.210;21.174;2023-04-01T08:04:20;17.60;;;15.70;;
18407;SDS011;9330;52.210;21.174;2023-04-01T08:06:56;18.08;;;16.20;;
18407;SDS011;9330;52.210;21.174;2023-04-01T08:09:30;18.85;;;16.90;;
18407;SDS011;9330;52.210;21.174;2023-04-01T08:12:08;18.48;;;16.67;;
18407;SDS011;9330;52.210;21.174;2023-04-01T08:14:56;20.05;;;17.58;;
18407;SDS011;9330;52.210;21.174;2023-04-01T08:17:31;19.95;;;17.98;;
18407;SDS011;9330;52.210;21.174;2023-04-01T08:20:14;20.38;;;18.27;;
18407;SDS011;9330;52.210;21.174;2023-04-01T08:22:50;18.83;;;16.92;;
18407;SDS011;9330;52.210;21.174;2023-04-01T08:25:21;15.80;;;14.20;;
18407;SDS011;9330;52.210;21.174;2023-04-01T08:27:51;17.02;;;15.32;;
18407;SDS011;9330;52.210;21.174;2023-04-01T08:30:25;16.02;;;14.40;;
18407;SDS011;9330;52.210;21.174;2023-04-01T08:32:55;18.40;;;16.60;;
18407;SDS011;9330;52.210;21.174;2023-04-01T08:35:26;16.52;;;14.82;;
18407;SDS011;9330;52.210;21.174;2023-04-01T08:37:57;15.35;;;13.77;;
18407;SDS011;9330;52.210;21.174;2023-04-01T08:43:27;16.00;;;14.40;;
18407;SDS011;9330;52.210;21.174;2023-04-01T08:46:21;18.67;;;16.17;;
18407;SDS011;9330;52.210;21.174;2023-04-01T08:49:11;17.10;;;15.30;;
18407;SDS011;9330;52.210;21.174;2023-04-01T08:54:48;14.73;;;12.32;;
18407;SDS011;9330;52.210;21.174;2023-04-01T08:57:40;12.23;;;10.93;;
18407;SDS011;9330;52.210;21.174;2023-04-01T09:00:14;13.18;;;10.98;;
18407;SDS011;9330;52.210;21.174;2023-04-01T09:06:07;10.68;;;9.57;;
18407;SDS011;9330;52.210;21.174;2023-04-01T09:09:19;10.85;;;9.32;;
18407;SDS011;9330;52.210;21.174;2023-04-01T09:12:17;8.20;;;7.40;;
18407;SDS011;9330;52.210;21.174;2023-04-01T09:27:01;11.23;;;10.13;;
18407;SDS011;9330;52.210;21.174;2023-04-01T09:29:40;11.52;;;10.27;;
18407;SDS011;9330;52.210;21.174;2023-04-01T09:32:38;9.57;;;8.57;;
18407;SDS011;9330;52.210;21.174;2023-04-01T09:35:33;10.25;;;8.30;;
18407;SDS011;9330;52.210;21.174;2023-04-01T09:38:14;10.13;;;8.35;;
18407;SDS011;9330;52.210;21.174;2023-04-01T09:40:47;7.30;;;6.30;;
18407;SDS011;9330;52.210;21.174;2023-04-01T09:43:27;6.70;;;5.75;;
18407;SDS011;9330;52.210;21.174;2023-04-01T09:46:09;6.22;;;5.63;;
18407;SDS011;9330;52.210;21.174;2023-04-01T09:51:55;6.45;;;5.00;;
18407;SDS011;9330;52.210;21.174;2023-04-01T09:54:40;4.28;;;3.63;;
18407;SDS011;9330;52.210;21.174;2023-04-01T10:00:48;6.38;;;4.30;;
18407;SDS011;9330;52.210;21.174;2023-04-01T10:15:45;6.20;;;5.60;;
18407;SDS011;9330;52.210;21.174;2023-04-01T10:18:39;5.35;;;4.13;;
18407;SDS011;9330;52.210;21.174;2023-04-01T10:24:29;4.55;;;3.90;;
18407;SDS011;9330;52.210;21.174;2023-04-01T10:27:28;3.50;;;2.90;;
18407;SDS011;9330;52.210;21.174;2023-04-01T10:33:39;3.50;;;3.17;;
18407;SDS011;9330;52.210;21.174;2023-04-01T10:36:40;2.90;;;2.60;;
18407;SDS011;9330;52.210;21.174;2023-04-01T10:39:35;4.43;;;3.05;;
18407;SDS011;9330;52.210;21.174;2023-04-01T10:42:39;4.55;;;2.88;;
18407;SDS011;9330;52.210;21.174;2023-04-01T10:45:37;2.90;;;2.20;;
18407;SDS011;9330;52.210;21.174;2023-04-01T10:51:23;4.35;;;3.60;;
18407;SDS011;9330;52.210;21.174;2023-04-01T10:54:11;5.30;;;4.47;;
18407;SDS011;9330;52.210;21.174;2023-04-01T10:56:47;7.43;;;4.85;;
18407;SDS011;9330;52.210;21.174;2023-04-01T11:05:54;6.28;;;5.53;;
18407;SDS011;9330;52.210;21.174;2023-04-01T11:14:59;5.10;;;4.60;;
18407;SDS011;9330;52.210;21.174;2023-04-01T11:24:15;4.82;;;4.18;;
18407;SDS011;9330;52.210;21.174;2023-04-01T11:26:52;5.53;;;4.13;;
18407;SDS011;9330;52.210;21.174;2023-04-01T11:32:25;5.10;;;4.57;;
18407;SDS011;9330;52.210;21.174;2023-04-01T11:35:25;4.82;;;4.22;;
18407;SDS011;9330;52.210;21.174;2023-04-01T11:38:14;4.55;;;4.07;;
18407;SDS011;9330;52.210;21.174;2023-04-01T11:40:53;5.25;;;4.43;;
18407;SDS011;9330;52.210;21.174;2023-04-01T11:43:27;4.70;;;3.97;;
18407;SDS011;9330;52.210;21.174;2023-04-01T11:45:59;4.90;;;4.40;;
18407;SDS011;9330;52.210;21.174;2023-04-01T11:48:45;5.68;;;4.53;;
18407;SDS011;9330;52.210;21.174;2023-04-01T11:51:33;4.35;;;3.95;;
18407;SDS011;9330;52.210;21.174;2023-04-01T11:54:14;4.88;;;4.07;;
18407;SDS011;9330;52.210;21.174;2023-04-01T11:57:05;4.32;;;3.92;;
18407;SDS011;9330;52.210;21.174;2023-04-01T11:59:47;4.90;;;4.30;;
18407;SDS011;9330;52.210;21.174;2023-04-01T12:02:40;4.70;;;3.90;;
18407;SDS011;9330;52.210;21.174;2023-04-01T12:05:18;5.13;;;4.45;;
18407;SDS011;9330;52.210;21.174;2023-04-01T12:08:03;4.25;;;3.85;;
18407;SDS011;9330;52.210;21.174;2023-04-01T12:10:45;4.22;;;3.83;;
18407;SDS011;9330;52.210;21.174;2023-04-01T12:13:24;4.60;;;4.20;;
18407;SDS011;9330;52.210;21.174;2023-04-01T12:16:08;3.67;;;3.30;;
18407;SDS011;9330;52.210;21.174;2023-04-01T12:18:48;4.18;;;3.78;;
18407;SDS011;9330;52.210;21.174;2023-04-01T12:21:23;4.45;;;4.05;;
18407;SDS011;9330;52.210;21.174;2023-04-01T12:24:01;5.20;;;4.45;;
18407;SDS011;9330;52.210;21.174;2023-04-01T12:26:44;4.80;;;4.30;;
18407;SDS011;9330;52.210;21.174;2023-04-01T12:32:23;5.32;;;4.60;;
18407;SDS011;9330;52.210;21.174;2023-04-01T12:35:02;5.25;;;4.65;;
18407;SDS011;9330;52.210;21.174;2023-04-01T12:37:45;5.85;;;4.65;;
18407;SDS011;9330;52.210;21.174;2023-04-01T12:40:31;6.00;;;5.40;;
18407;SDS011;9330;52.210;21.174;2023-04-01T12:43:18;6.20;;;5.60;;
18407;SDS011;9330;52.210;21.174;2023-04-01T12:46:00;6.18;;;5.57;;
18407;SDS011;9330;52.210;21.174;2023-04-01T12:48:47;5.28;;;4.78;;
18407;SDS011;9330;52.210;21.174;2023-04-01T12:51:38;6.07;;;4.88;;
18407;SDS011;9330;52.210;21.174;2023-04-01T12:54:31;5.22;;;4.70;;
18407;SDS011;9330;52.210;21.174;2023-04-01T12:57:26;4.80;;;4.30;;
18407;SDS011;9330;52.210;21.174;2023-04-01T13:00:27;2.53;;;2.33;;
18407;SDS011;9330;52.210;21.174;2023-04-01T13:03:19;3.20;;;1.95;;
18407;SDS011;9330;52.210;21.174;2023-04-01T13:06:11;2.45;;;1.80;;
18407;SDS011;9330;52.210;21.174;2023-04-01T13:08:55;2.70;;;1.88;;
18407;SDS011;9330;52.210;21.174;2023-04-01T13:11:34;2.20;;;1.65;;
18407;SDS011;9330;52.210;21.174;2023-04-01T13:14:18;2.13;;;1.77;;
18407;SDS011;9330;52.210;21.174;2023-04-01T13:17:10;2.47;;;2.17;;
18407;SDS011;9330;52.210;21.174;2023-04-01T13:19:44;2.20;;;2.00;;
18407;SDS011;9330;52.210;21.174;2023-04-01T13:22:17;2.67;;;2.30;;
18407;SDS011;9330;52.210;21.174;2023-04-01T13:24:50;2.00;;;1.77;;
18407;SDS011;9330;52.210;21.174;2023-04-01T13:27:24;2.60;;;2.40;;
18407;SDS011;9330;52.210;21.174;2023-04-01T13:30:01;2.72;;;1.85;;
18407;SDS011;9330;52.210;21.174;2023-04-01T13:32:36;2.95;;;1.80;;
18407;SDS011;9330;52.210;21.174;2023-04-01T13:38:09;2.35;;;1.70;;
18407;SDS011;9330;52.210;21.174;2023-04-01T13:40:58;2.38;;;1.63;;
18407;SDS011;9330;52.210;21.174;2023-04-01T13:43:34;1.70;;;1.60;;
18407;SDS011;9330;52.210;21.174;2023-04-01T13:46:08;2.28;;;1.80;;
18407;SDS011;9330;52.210;21.174;2023-04-01T13:49:04;2.13;;;1.50;;
18407;SDS011;9330;52.210;21.174;2023-04-01T13:51:55;2.67;;;1.55;;
18407;SDS011;9330;52.210;21.174;2023-04-01T13:54:49;1.70;;;1.60;;
18407;SDS011;9330;52.210;21.174;2023-04-01T13:57:39;2.63;;;1.70;;
18407;SDS011;9330;52.210;21.174;2023-04-01T14:00:19;2.22;;;2.03;;
18407;SDS011;9330;52.210;21.174;2023-04-01T14:03:03;3.03;;;2.28;;
18407;SDS011;9330;52.210;21.174;2023-04-01T14:05:56;3.05;;;2.40;;
18407;SDS011;9330;52.210;21.174;2023-04-01T14:08:42;2.78;;;1.88;;
18407;SDS011;9330;52.210;21.174;2023-04-01T14:11:22;3.00;;;1.95;;
18407;SDS011;9330;52.210;21.174;2023-04-01T14:13:58;1.90;;;1.70;;
18407;SDS011;9330;52.210;21.174;2023-04-01T14:19:43;2.05;;;1.60;;
18407;SDS011;9330;52.210;21.174;2023-04-01T14:22:27;1.38;;;1.27;;
18407;SDS011;9330;52.210;21.174;2023-04-01T14:25:23;2.55;;;1.45;;
18407;SDS011;9330;52.210;21.174;2023-04-01T14:28:01;1.30;;;1.20;;
18407;SDS011;9330;52.210;21.174;2023-04-01T14:30:37;1.60;;;1.30;;
18407;SDS011;9330;52.210;21.174;2023-04-01T14:33:19;2.38;;;1.20;;
18407;SDS011;9330;52.210;21.174;2023-04-01T14:36:19;1.83;;;1.63;;
18407;SDS011;9330;52.210;21.174;2023-04-01T14:39:08;3.10;;;2.33;;
18407;SDS011;9330;52.210;21.174;2023-04-01T14:41:47;2.10;;;1.90;;
18407;SDS011;9330;52.210;21.174;2023-04-01T14:44:33;2.30;;;2.10;;
18407;SDS011;9330;52.210;21.174;2023-04-01T14:47:24;2.38;;;2.17;;
18407;SDS011;9330;52.210;21.174;2023-04-01T14:50:06;2.72;;;2.47;;
18407;SDS011;9330;52.210;21.174;2023-04-01T14:52:38;2.50;;;2.30;;
18407;SDS011;9330;52.210;21.174;2023-04-01T14:55:19;2.30;;;1.85;;
18407;SDS011;9330;52.210;21.174;2023-04-01T14:57:59;2.30;;;2.03;;
18407;SDS011;9330;52.210;21.174;2023-04-01T15:00:41;2.20;;;2.00;;
18407;SDS011;9330;52.210;21.174;2023-04-01T15:03:22;2.28;;;1.83;;
18407;SDS011;9330;52.210;21.174;2023-04-01T15:05:55;2.47;;;2.00;;
18407;SDS011;9330;52.210;21.174;2023-04-01T15:08:37;2.45;;;1.75;;
18407;SDS011;9330;52.210;21.174;2023-04-01T15:11:25;2.13;;;1.92;;
18407;SDS011;9330;52.210;21.174;2023-04-01T15:20:24;2.80;;;2.17;;
18407;SDS011;9330;52.210;21.174;2023-04-01T15:23:02;2.47;;;2.08;;
18407;SDS011;9330;52.210;21.174;2023-04-01T15:25:45;3.47;;;2.50;;
18407;SDS011;9330;52.210;21.174;2023-04-01T15:28:28;4.07;;;2.30;;
18407;SDS011;9330;52.210;21.174;2023-04-01T15:31:05;3.00;;;2.35;;
18407;SDS011;9330;52.210;21.174;2023-04-01T15:33:39;2.47;;;2.20;;
18407;SDS011;9330;52.210;21.174;2023-04-01T15:36:33;2.83;;;2.42;;
18407;SDS011;9330;52.210;21.174;2023-04-01T15:39:13;3.28;;;2.40;;
18407;SDS011;9330;52.210;21.174;2023-04-01T15:41:49;2.10;;;1.90;;
18407;SDS011;9330;52.210;21.174;2023-04-01T15:44:33;3.40;;;2.47;;
18407;SDS011;9330;52.210;21.174;2023-04-01T15:47:25;2.55;;;2.20;;
18407;SDS011;9330;52.210;21.174;2023-04-01T15:50:01;2.97;;;2.55;;
18407;SDS011;9330;52.210;21.174;2023-04-01T15:52:48;2.75;;;2.22;;
18407;SDS011;9330;52.210;21.174;2023-04-01T15:55:19;3.05;;;2.42;;
18407;SDS011;9330;52.210;21.174;2023-04-01T15:57:55;2.90;;;2.53;;
18407;SDS011;9330;52.210;21.174;2023-04-01T16:00:43;4.10;;;2.80;;
18407;SDS011;9330;52.210;21.174;2023-04-01T16:03:32;2.65;;;2.20;;
18407;SDS011;9330;52.210;21.174;2023-04-01T16:06:11;3.60;;;2.72;;
18407;SDS011;9330;52.210;21.174;2023-04-01T16:08:54;3.40;;;2.60;;
18407;SDS011;9330;52.210;21.174;2023-04-01T16:11:41;3.63;;;2.45;;
18407;SDS011;9330;52.210;21.174;2023-04-01T16:14:16;3.35;;;2.20;;
18407;SDS011;9330;52.210;21.174;2023-04-01T16:16:50;2.08;;;1.88;;
18407;SDS011;9330;52.210;21.174;2023-04-01T16:19:33;2.03;;;1.80;;
18407;SDS011;9330;52.210;21.174;2023-04-01T16:22:06;3.25;;;1.83;;
18407;SDS011;9330;52.210;21.174;2023-04-01T16:24:40;2.35;;;1.98;;
18407;SDS011;9330;52.210;21.174;2023-04-01T16:27:12;3.40;;;1.77;;
18407;SDS011;9330;52.210;21.174;2023-04-01T16:29:46;2.35;;;1.83;;
18407;SDS011;9330;52.210;21.174;2023-04-01T16:32:21;2.65;;;1.85;;
18407;SDS011;9330;52.210;21.174;2023-04-01T16:35:01;1.63;;;1.52;;
18407;SDS011;9330;52.210;21.174;2023-04-01T16:37:43;1.80;;;1.30;;
18407;SDS011;9330;52.210;21.174;2023-04-01T16:40:16;2.22;;;1.65;;
18407;SDS011;9330;52.210;21.174;2023-04-01T16:42:52;2.15;;;1.60;;
18407;SDS011;9330;52.210;21.174;2023-04-01T16:45:28;2.97;;;1.45;;
18407;SDS011;9330;52.210;21.174;2023-04-01T16:48:05;1.98;;;1.30;;
18407;SDS011;9330;52.210;21.174;2023-04-01T16:50:43;1.90;;;1.67;;
18407;SDS011;9330;52.210;21.174;2023-04-01T16:53:19;2.28;;;1.70;;
18407;SDS011;9330;52.210;21.174;2023-04-01T16:55:57;2.38;;;1.92;;
18407;SDS011;9330;52.210;21.174;2023-04-01T16:58:34;3.47;;;2.33;;
18407;SDS011;9330;52.210;21.174;2023-04-01T17:01:03;2.58;;;2.13;;
18407;SDS011;9330;52.210;21.174;2023-04-01T17:03:34;2.92;;;1.92;;
18407;SDS011;9330;52.210;21.174;2023-04-01T17:06:11;2.50;;;1.90;;
18407;SDS011;9330;52.210;21.174;2023-04-01T17:09:07;2.72;;;1.75;;
18407;SDS011;9330;52.210;21.174;2023-04-01T17:11:48;2.13;;;1.63;;
18407;SDS011;9330;52.210;21.174;2023-04-01T17:14:21;2.85;;;1.65;;